sensor_id;sensor_type;location;lat;lon;timestamp;P1;durP1;ratioP1;P2;durP2;ratioP2
10872;SDS011;34586;53.616;10.032;2023-01-16T00:01:59;4.83;;;3.10;;
10872;SDS011;34586;53.616;10.032;2023-01-16T00:04:24;2.87;;;2.60;;
10872;SDS011;34586;53.616;10.032;2023-01-16T00:06:50;5.00;;;3.73;;
10872;SDS011;34586;53.616;10.032;2023-01-16T00:09:16;5.70;;;3.17;;
10872;SDS011;34586;53.616;10.032;2023-01-16T00:11:43;5.07;;;3.30;;
10872;SDS011;34586;53.616;10.032;2023-01-16T00:14:08;4.63;;;3.70;;
10872;SDS011;34586;53.616;10.032;2023-01-16T00:16:34;4.17;;;3.80;;
10872;SDS011;34586;53.616;10.032;2023-01-16T00:19:00;4.77;;;3.40;;
10872;SDS011;34586;53.616;10.032;2023-01-16T00:21:26;3.97;;;3.60;;
10872;SDS011;34586;53.616;10.032;2023-01-16T00:23:58;3.50;;;3.20;;
10872;SDS011;34586;53.616;10.032;2023-01-16T00:26:26;7.03;;;4.33;;
10872;SDS011;34586;53.616;10.032;2023-01-16T00:28:53;3.97;;;3.67;;
10872;SDS011;34586;53.616;10.032;2023-01-16T00:31:19;6.20;;;3.50;;
10872;SDS011;34586;53.616;10.032;2023-01-16T00:33:45;5.50;;;4.03;;
10872;SDS011;34586;53.616;10.032;2023-01-16T00:36:11;7.83;;;4.30;;
10872;SDS011;34586;53.616;10.032;2023-01-16T00:38:37;5.33;;;3.60;;
10872;SDS011;34586;53.616;10.032;2023-01-16T00:41:03;8.03;;;4.37;;
10872;SDS011;34586;53.616;10.032;2023-01-16T00:43:29;7.13;;;4.70;;
10872;SDS011;34586;53.616;10.032;2023-01-16T00:45:54;6.47;;;4.70;;
10872;SDS011;34586;53.616;10.032;2023-01-16T00:48:21;5.23;;;4.37;;
10872;SDS011;34586;53.616;10.032;2023-01-16T00:50:47;7.27;;;4.53;;
10872;SDS011;34586;53.616;10.032;2023-01-16T00:53:13;7.27;;;4.63;;
10872;SDS011;34586;53.616;10.032;2023-01-16T00:55:39;6.97;;;4.33;;
10872;SDS011;34586;53.616;10.032;2023-01-16T00:58:06;4.53;;;4.10;;
10872;SDS011;34586;53.616;10.032;2023-01-16T01:00:36;6.10;;;3.57;;
10872;SDS011;34586;53.616;10.032;2023-01-16T01:03:02;6.57;;;3.40;;
10872;SDS011;34586;53.616;10.032;2023-01-16T01:05:28;5.53;;;3.70;;
10872;SDS011;34586;53.616;10.032;2023-01-16T01:07:54;6.67;;;3.73;;
10872;SDS011;34586;53.616;10.032;2023-01-16T01:10:20;5.80;;;3.20;;
10872;SDS011;34586;53.616;10.032;2023-01-16T01:12:45;6.50;;;3.70;;
10872;SDS011;34586;53.616;10.032;2023-01-16T01:15:11;5.10;;;2.90;;
10872;SDS011;34586;53.616;10.032;2023-01-16T01:17:36;8.97;;;3.37;;
10872;SDS011;34586;53.616;10.032;2023-01-16T01:20:02;6.43;;;2.57;;
10872;SDS011;34586;53.616;10.032;2023-01-16T01:22:28;5.97;;;3.00;;
10872;SDS011;34586;53.616;10.032;2023-01-16T01:24:54;4.00;;;2.60;;
10872;SDS011;34586;53.616;10.032;2023-01-16T01:27:20;7.77;;;2.70;;
10872;SDS011;34586;53.616;10.032;2023-01-16T01:29:45;3.67;;;2.50;;
10872;SDS011;34586;53.616;10.032;2023-01-16T01:32:11;6.27;;;2.53;;
10872;SDS011;34586;53.616;10.032;2023-01-16T01:34:37;6.00;;;2.73;;
10872;SDS011;34586;53.616;10.032;2023-01-16T01:37:03;3.40;;;2.23;;
10872;SDS011;34586;53.616;10.032;2023-01-16T01:39:31;3.70;;;2.50;;
10872;SDS011;34586;53.616;10.032;2023-01-16T01:41:57;8.60;;;3.00;;
10872;SDS011;34586;53.616;10.032;2023-01-16T01:47:18;3.17;;;2.43;;
10872;SDS011;34586;53.616;10.032;2023-01-16T01:49:48;4.53;;;2.83;;
10872;SDS011;34586;53.616;10.032;2023-01-16T01:52:14;5.67;;;2.83;;
10872;SDS011;34586;53.616;10.032;2023-01-16T01:54:43;3.27;;;2.90;;
10872;SDS011;34586;53.616;10.032;2023-01-16T01:57:14;7.13;;;3.00;;
10872;SDS011;34586;53.616;10.032;2023-01-16T01:59:49;5.73;;;2.70;;
10872;SDS011;34586;53.616;10.032;2023-01-16T02:02:22;5.23;;;2.57;;
10872;SDS011;34586;53.616;10.032;2023-01-16T02:04:51;5.67;;;2.40;;
10872;SDS011;34586;53.616;10.032;2023-01-16T02:07:22;5.30;;;2.30;;
10872;SDS011;34586;53.616;10.032;2023-01-16T02:09:52;4.30;;;2.40;;
10872;SDS011;34586;53.616;10.032;2023-01-16T02:12:35;4.33;;;2.03;;
10872;SDS011;34586;53.616;10.032;2023-01-16T02:15:01;3.53;;;2.00;;
10872;SDS011;34586;53.616;10.032;2023-01-16T02:17:27;4.57;;;1.87;;
10872;SDS011;34586;53.616;10.032;2023-01-16T02:20:21;3.30;;;1.63;;
10872;SDS011;34586;53.616;10.032;2023-01-16T02:29:09;6.30;;;1.37;;
10872;SDS011;34586;53.616;10.032;2023-01-16T02:51:16;4.70;;;1.40;;
10872;SDS011;34586;53.616;10.032;2023-01-16T02:53:59;5.53;;;1.10;;
10872;SDS011;34586;53.616;10.032;2023-01-16T02:56:39;4.13;;;1.53;;
10872;SDS011;34586;53.616;10.032;2023-01-16T02:59:11;2.67;;;1.10;;
10872;SDS011;34586;53.616;10.032;2023-01-16T03:01:39;5.80;;;1.10;;
10872;SDS011;34586;53.616;10.032;2023-01-16T03:04:34;3.43;;;1.20;;
10872;SDS011;34586;53.616;10.032;2023-01-16T03:12:48;2.13;;;1.17;;
10872;SDS011;34586;53.616;10.032;2023-01-16T03:15:26;3.43;;;1.77;;
10872;SDS011;34586;53.616;10.032;2023-01-16T03:25:43;6.13;;;1.30;;
10872;SDS011;34586;53.616;10.032;2023-01-16T03:31:12;2.70;;;1.23;;
10872;SDS011;34586;53.616;10.032;2023-01-16T03:33:47;4.03;;;1.33;;
10872;SDS011;34586;53.616;10.032;2023-01-16T03:36:42;3.97;;;1.40;;
10872;SDS011;34586;53.616;10.032;2023-01-16T03:39:21;3.70;;;1.43;;
10872;SDS011;34586;53.616;10.032;2023-01-16T03:41:50;4.33;;;1.57;;
10872;SDS011;34586;53.616;10.032;2023-01-16T03:44:27;3.97;;;1.67;;
10872;SDS011;34586;53.616;10.032;2023-01-16T03:46:59;3.90;;;1.80;;
10872;SDS011;34586;53.616;10.032;2023-01-16T03:49:37;3.13;;;1.30;;
10872;SDS011;34586;53.616;10.032;2023-01-16T03:52:07;5.50;;;1.70;;
10872;SDS011;34586;53.616;10.032;2023-01-16T03:54:42;5.83;;;1.70;;
10872;SDS011;34586;53.616;10.032;2023-01-16T03:57:19;4.93;;;1.90;;
10872;SDS011;34586;53.616;10.032;2023-01-16T03:59:52;5.07;;;1.43;;
10872;SDS011;34586;53.616;10.032;2023-01-16T04:02:26;4.50;;;1.27;;
10872;SDS011;34586;53.616;10.032;2023-01-16T04:05:00;5.10;;;1.80;;
10872;SDS011;34586;53.616;10.032;2023-01-16T04:10:12;5.57;;;1.70;;
10872;SDS011;34586;53.616;10.032;2023-01-16T04:12:44;3.50;;;1.50;;
10872;SDS011;34586;53.616;10.032;2023-01-16T04:15:15;5.23;;;1.33;;
10872;SDS011;34586;53.616;10.032;2023-01-16T04:17:43;4.97;;;1.47;;
10872;SDS011;34586;53.616;10.032;2023-01-16T04:20:09;3.43;;;1.30;;
10872;SDS011;34586;53.616;10.032;2023-01-16T04:22:35;2.97;;;1.30;;
10872;SDS011;34586;53.616;10.032;2023-01-16T04:25:02;5.57;;;1.57;;
10872;SDS011;34586;53.616;10.032;2023-01-16T04:27:30;3.13;;;1.00;;
10872;SDS011;34586;53.616;10.032;2023-01-16T04:29:56;2.17;;;0.80;;
10872;SDS011;34586;53.616;10.032;2023-01-16T04:32:22;2.97;;;1.00;;
10872;SDS011;34586;53.616;10.032;2023-01-16T04:34:47;3.40;;;0.90;;
10872;SDS011;34586;53.616;10.032;2023-01-16T04:37:14;3.30;;;1.27;;
10872;SDS011;34586;53.616;10.032;2023-01-16T04:39:41;3.60;;;1.13;;
10872;SDS011;34586;53.616;10.032;2023-01-16T04:42:07;4.37;;;1.20;;
10872;SDS011;34586;53.616;10.032;2023-01-16T04:44:33;4.07;;;1.07;;
10872;SDS011;34586;53.616;10.032;2023-01-16T04:46:59;5.77;;;1.13;;
10872;SDS011;34586;53.616;10.032;2023-01-16T04:49:24;2.83;;;1.03;;
10872;SDS011;34586;53.616;10.032;2023-01-16T04:51:50;4.30;;;1.00;;
10872;SDS011;34586;53.616;10.032;2023-01-16T04:54:16;3.77;;;1.07;;
10872;SDS011;34586;53.616;10.032;2023-01-16T04:56:42;3.83;;;1.00;;
10872;SDS011;34586;53.616;10.032;2023-01-16T04:59:08;4.47;;;1.23;;
10872;SDS011;34586;53.616;10.032;2023-01-16T05:01:34;3.73;;;1.10;;
10872;SDS011;34586;53.616;10.032;2023-01-16T05:04:03;5.60;;;1.20;;
10872;SDS011;34586;53.616;10.032;2023-01-16T05:06:29;3.00;;;1.07;;
10872;SDS011;34586;53.616;10.032;2023-01-16T05:08:55;4.37;;;1.10;;
10872;SDS011;34586;53.616;10.032;2023-01-16T05:11:21;4.80;;;1.30;;
10872;SDS011;34586;53.616;10.032;2023-01-16T05:13:46;3.00;;;1.00;;
10872;SDS011;34586;53.616;10.032;2023-01-16T05:16:12;3.77;;;1.00;;
10872;SDS011;34586;53.616;10.032;2023-01-16T05:18:37;2.23;;;0.70;;
10872;SDS011;34586;53.616;10.032;2023-01-16T05:21:03;4.37;;;1.00;;
10872;SDS011;34586;53.616;10.032;2023-01-16T05:23:29;3.10;;;0.83;;
10872;SDS011;34586;53.616;10.032;2023-01-16T05:25:59;5.13;;;1.23;;
10872;SDS011;34586;53.616;10.032;2023-01-16T05:28:25;2.53;;;0.90;;
10872;SDS011;34586;53.616;10.032;2023-01-16T05:30:51;2.27;;;0.70;;
10872;SDS011;34586;53.616;10.032;2023-01-16T05:33:17;4.60;;;0.70;;
10872;SDS011;34586;53.616;10.032;2023-01-16T05:35:44;2.33;;;0.70;;
10872;SDS011;34586;53.616;10.032;2023-01-16T05:38:11;3.80;;;0.80;;
10872;SDS011;34586;53.616;10.032;2023-01-16T05:40:37;3.87;;;0.80;;
10872;SDS011;34586;53.616;10.032;2023-01-16T05:43:03;3.20;;;0.80;;
10872;SDS011;34586;53.616;10.032;2023-01-16T05:45:29;2.77;;;0.90;;
10872;SDS011;34586;53.616;10.032;2023-01-16T05:47:54;3.07;;;1.13;;
10872;SDS011;34586;53.616;10.032;2023-01-16T05:50:20;4.00;;;1.23;;
10872;SDS011;34586;53.616;10.032;2023-01-16T05:52:46;2.17;;;1.00;;
10872;SDS011;34586;53.616;10.032;2023-01-16T05:55:11;3.43;;;1.10;;
10872;SDS011;34586;53.616;10.032;2023-01-16T05:57:37;2.73;;;0.80;;
10872;SDS011;34586;53.616;10.032;2023-01-16T06:00:03;2.27;;;1.13;;
10872;SDS011;34586;53.616;10.032;2023-01-16T06:02:29;2.67;;;1.10;;
10872;SDS011;34586;53.616;10.032;2023-01-16T06:04:55;5.63;;;0.87;;
10872;SDS011;34586;53.616;10.032;2023-01-16T06:07:21;3.83;;;0.97;;
10872;SDS011;34586;53.616;10.032;2023-01-16T06:09:46;1.73;;;0.70;;
10872;SDS011;34586;53.616;10.032;2023-01-16T06:12:13;3.77;;;0.70;;
10872;SDS011;34586;53.616;10.032;2023-01-16T06:14:40;3.13;;;0.73;;
10872;SDS011;34586;53.616;10.032;2023-01-16T06:17:06;4.73;;;1.00;;
10872;SDS011;34586;53.616;10.032;2023-01-16T06:19:31;4.10;;;1.10;;
10872;SDS011;34586;53.616;10.032;2023-01-16T06:21:57;3.90;;;1.23;;
10872;SDS011;34586;53.616;10.032;2023-01-16T06:24:22;2.67;;;1.07;;
10872;SDS011;34586;53.616;10.032;2023-01-16T06:26:48;2.43;;;1.20;;
10872;SDS011;34586;53.616;10.032;2023-01-16T06:29:14;5.13;;;0.80;;
10872;SDS011;34586;53.616;10.032;2023-01-16T06:31:39;1.43;;;0.70;;
10872;SDS011;34586;53.616;10.032;2023-01-16T06:34:05;2.87;;;0.87;;
10872;SDS011;34586;53.616;10.032;2023-01-16T06:36:30;2.97;;;0.97;;
10872;SDS011;34586;53.616;10.032;2023-01-16T06:38:56;2.17;;;0.70;;
10872;SDS011;34586;53.616;10.032;2023-01-16T06:41:21;3.00;;;1.10;;
10872;SDS011;34586;53.616;10.032;2023-01-16T06:43:47;3.30;;;1.40;;
10872;SDS011;34586;53.616;10.032;2023-01-16T06:46:13;1.87;;;1.10;;
10872;SDS011;34586;53.616;10.032;2023-01-16T06:48:38;1.33;;;1.00;;
10872;SDS011;34586;53.616;10.032;2023-01-16T06:51:06;5.40;;;1.07;;
10872;SDS011;34586;53.616;10.032;2023-01-16T06:53:32;2.47;;;0.83;;
10872;SDS011;34586;53.616;10.032;2023-01-16T06:55:57;2.93;;;0.80;;
10872;SDS011;34586;53.616;10.032;2023-01-16T06:58:23;2.50;;;0.77;;
10872;SDS011;34586;53.616;10.032;2023-01-16T07:00:50;1.90;;;0.80;;
10872;SDS011;34586;53.616;10.032;2023-01-16T07:03:16;3.10;;;0.80;;
10872;SDS011;34586;53.616;10.032;2023-01-16T07:05:43;3.63;;;0.80;;
10872;SDS011;34586;53.616;10.032;2023-01-16T07:08:10;3.30;;;1.10;;
10872;SDS011;34586;53.616;10.032;2023-01-16T07:10:36;3.07;;;0.90;;
10872;SDS011;34586;53.616;10.032;2023-01-16T07:13:02;3.47;;;1.17;;
10872;SDS011;34586;53.616;10.032;2023-01-16T07:15:27;2.57;;;0.80;;
10872;SDS011;34586;53.616;10.032;2023-01-16T07:18:13;3.80;;;0.90;;
10872;SDS011;34586;53.616;10.032;2023-01-16T07:20:59;2.20;;;0.70;;
10872;SDS011;34586;53.616;10.032;2023-01-16T07:23:53;3.20;;;1.03;;
10872;SDS011;34586;53.616;10.032;2023-01-16T07:26:27;2.87;;;0.80;;
10872;SDS011;34586;53.616;10.032;2023-01-16T07:28:53;3.47;;;1.20;;
10872;SDS011;34586;53.616;10.032;2023-01-16T07:31:21;2.80;;;0.80;;
10872;SDS011;34586;53.616;10.032;2023-01-16T07:33:47;6.47;;;1.03;;
10872;SDS011;34586;53.616;10.032;2023-01-16T07:36:13;1.57;;;0.80;;
10872;SDS011;34586;53.616;10.032;2023-01-16T07:38:38;5.37;;;1.00;;
10872;SDS011;34586;53.616;10.032;2023-01-16T07:41:04;2.47;;;0.97;;
10872;SDS011;34586;53.616;10.032;2023-01-16T07:43:30;3.07;;;1.00;;
10872;SDS011;34586;53.616;10.032;2023-01-16T07:45:56;4.20;;;0.87;;
10872;SDS011;34586;53.616;10.032;2023-01-16T07:48:22;2.50;;;1.00;;
10872;SDS011;34586;53.616;10.032;2023-01-16T07:50:48;3.63;;;0.80;;
10872;SDS011;34586;53.616;10.032;2023-01-16T07:53:22;1.53;;;0.70;;
10872;SDS011;34586;53.616;10.032;2023-01-16T07:55:50;2.40;;;0.90;;
10872;SDS011;34586;53.616;10.032;2023-01-16T07:58:17;3.13;;;0.63;;
10872;SDS011;34586;53.616;10.032;2023-01-16T08:00:43;2.13;;;0.90;;
10872;SDS011;34586;53.616;10.032;2023-01-16T08:03:09;2.57;;;0.73;;
10872;SDS011;34586;53.616;10.032;2023-01-16T08:05:35;1.77;;;0.73;;
10872;SDS011;34586;53.616;10.032;2023-01-16T08:08:01;1.93;;;0.90;;
10872;SDS011;34586;53.616;10.032;2023-01-16T08:10:28;3.37;;;0.83;;
10872;SDS011;34586;53.616;10.032;2023-01-16T08:12:53;3.87;;;0.97;;
10872;SDS011;34586;53.616;10.032;2023-01-16T08:15:19;1.17;;;0.80;;
10872;SDS011;34586;53.616;10.032;2023-01-16T08:17:45;5.20;;;1.50;;
10872;SDS011;34586;53.616;10.032;2023-01-16T08:20:10;1.53;;;0.80;;
10872;SDS011;34586;53.616;10.032;2023-01-16T08:22:46;2.10;;;0.80;;
10872;SDS011;34586;53.616;10.032;2023-01-16T08:25:15;1.50;;;0.97;;
10872;SDS011;34586;53.616;10.032;2023-01-16T08:27:41;2.33;;;0.90;;
10872;SDS011;34586;53.616;10.032;2023-01-16T08:30:07;2.87;;;0.90;;
10872;SDS011;34586;53.616;10.032;2023-01-16T08:32:36;3.70;;;1.13;;
10872;SDS011;34586;53.616;10.032;2023-01-16T08:35:02;3.53;;;0.80;;
10872;SDS011;34586;53.616;10.032;2023-01-16T08:37:31;2.87;;;0.90;;
10872;SDS011;34586;53.616;10.032;2023-01-16T08:39:57;3.63;;;0.90;;
10872;SDS011;34586;53.616;10.032;2023-01-16T08:42:23;2.23;;;0.80;;
10872;SDS011;34586;53.616;10.032;2023-01-16T08:45:11;1.97;;;0.50;;
10872;SDS011;34586;53.616;10.032;2023-01-16T08:47:56;1.50;;;0.77;;
10872;SDS011;34586;53.616;10.032;2023-01-16T08:50:41;2.60;;;0.70;;
10872;SDS011;34586;53.616;10.032;2023-01-16T08:53:26;2.33;;;1.00;;
10872;SDS011;34586;53.616;10.032;2023-01-16T08:55:51;1.87;;;0.80;;
10872;SDS011;34586;53.616;10.032;2023-01-16T08:58:17;2.33;;;1.07;;
10872;SDS011;34586;53.616;10.032;2023-01-16T09:00:45;1.93;;;0.77;;
10872;SDS011;34586;53.616;10.032;2023-01-16T09:03:11;1.87;;;0.97;;
10872;SDS011;34586;53.616;10.032;2023-01-16T09:05:37;2.90;;;0.83;;
10872;SDS011;34586;53.616;10.032;2023-01-16T09:08:03;3.43;;;1.17;;
10872;SDS011;34586;53.616;10.032;2023-01-16T09:10:28;2.20;;;1.10;;
10872;SDS011;34586;53.616;10.032;2023-01-16T09:12:55;2.13;;;1.00;;
10872;SDS011;34586;53.616;10.032;2023-01-16T09:15:40;4.80;;;1.00;;
10872;SDS011;34586;53.616;10.032;2023-01-16T09:18:05;1.67;;;0.90;;
10872;SDS011;34586;53.616;10.032;2023-01-16T09:20:31;2.50;;;1.23;;
10872;SDS011;34586;53.616;10.032;2023-01-16T09:22:57;3.50;;;0.97;;
10872;SDS011;34586;53.616;10.032;2023-01-16T09:25:24;2.90;;;0.90;;
10872;SDS011;34586;53.616;10.032;2023-01-16T09:27:49;2.20;;;0.90;;
10872;SDS011;34586;53.616;10.032;2023-01-16T09:30:15;2.23;;;1.07;;
10872;SDS011;34586;53.616;10.032;2023-01-16T09:32:43;3.00;;;1.10;;
10872;SDS011;34586;53.616;10.032;2023-01-16T09:35:09;1.73;;;0.70;;
10872;SDS011;34586;53.616;10.032;2023-01-16T09:37:35;2.10;;;0.70;;
10872;SDS011;34586;53.616;10.032;2023-01-16T09:40:00;2.23;;;0.80;;
10872;SDS011;34586;53.616;10.032;2023-01-16T09:42:36;1.30;;;0.83;;
10872;SDS011;34586;53.616;10.032;2023-01-16T09:45:31;1.03;;;0.70;;
10872;SDS011;34586;53.616;10.032;2023-01-16T09:48:00;4.87;;;1.13;;
10872;SDS011;34586;53.616;10.032;2023-01-16T09:53:05;2.53;;;0.87;;
10872;SDS011;34586;53.616;10.032;2023-01-16T09:55:56;2.67;;;1.00;;
10872;SDS011;34586;53.616;10.032;2023-01-16T09:58:54;2.27;;;0.80;;
10872;SDS011;34586;53.616;10.032;2023-01-16T10:01:39;2.30;;;0.90;;
10872;SDS011;34586;53.616;10.032;2023-01-16T10:04:17;0.90;;;0.60;;
10872;SDS011;34586;53.616;10.032;2023-01-16T10:06:53;2.80;;;0.80;;
10872;SDS011;34586;53.616;10.032;2023-01-16T10:09:42;2.27;;;0.80;;
10872;SDS011;34586;53.616;10.032;2023-01-16T10:12:26;2.20;;;0.67;;
10872;SDS011;34586;53.616;10.032;2023-01-16T10:15:04;1.20;;;0.70;;
10872;SDS011;34586;53.616;10.032;2023-01-16T10:17:48;2.37;;;0.80;;
10872;SDS011;34586;53.616;10.032;2023-01-16T10:26:07;2.67;;;0.80;;
10872;SDS011;34586;53.616;10.032;2023-01-16T10:31:14;1.27;;;0.70;;
10872;SDS011;34586;53.616;10.032;2023-01-16T10:33:50;2.47;;;0.70;;
10872;SDS011;34586;53.616;10.032;2023-01-16T10:36:29;1.63;;;0.90;;
10872;SDS011;34586;53.616;10.032;2023-01-16T10:39:02;2.53;;;1.13;;
10872;SDS011;34586;53.616;10.032;2023-01-16T10:41:33;2.07;;;0.77;;
10872;SDS011;34586;53.616;10.032;2023-01-16T10:47:16;1.70;;;0.83;;
10872;SDS011;34586;53.616;10.032;2023-01-16T10:50:03;1.87;;;0.63;;
10872;SDS011;34586;53.616;10.032;2023-01-16T10:52:31;1.70;;;0.80;;
10872;SDS011;34586;53.616;10.032;2023-01-16T10:54:58;3.07;;;0.83;;
10872;SDS011;34586;53.616;10.032;2023-01-16T10:57:25;3.33;;;0.80;;
10872;SDS011;34586;53.616;10.032;2023-01-16T11:00:00;3.83;;;0.80;;
10872;SDS011;34586;53.616;10.032;2023-01-16T11:08:17;2.80;;;0.80;;
10872;SDS011;34586;53.616;10.032;2023-01-16T11:10:44;2.50;;;0.80;;
10872;SDS011;34586;53.616;10.032;2023-01-16T11:13:15;3.37;;;0.90;;
10872;SDS011;34586;53.616;10.032;2023-01-16T11:16:05;2.40;;;0.87;;
10872;SDS011;34586;53.616;10.032;2023-01-16T11:18:53;2.87;;;1.00;;
10872;SDS011;34586;53.616;10.032;2023-01-16T11:21:28;1.87;;;0.93;;
10872;SDS011;34586;53.616;10.032;2023-01-16T11:23:57;1.77;;;0.90;;
10872;SDS011;34586;53.616;10.032;2023-01-16T11:26:23;3.47;;;1.20;;
10872;SDS011;34586;53.616;10.032;2023-01-16T11:28:49;4.13;;;1.07;;
10872;SDS011;34586;53.616;10.032;2023-01-16T11:33:47;2.20;;;0.87;;
10872;SDS011;34586;53.616;10.032;2023-01-16T11:36:19;1.00;;;0.50;;
10872;SDS011;34586;53.616;10.032;2023-01-16T11:38:46;1.53;;;0.70;;
10872;SDS011;34586;53.616;10.032;2023-01-16T11:41:15;1.70;;;0.73;;
10872;SDS011;34586;53.616;10.032;2023-01-16T11:43:43;2.07;;;0.70;;
10872;SDS011;34586;53.616;10.032;2023-01-16T11:48:54;2.57;;;1.00;;
10872;SDS011;34586;53.616;10.032;2023-01-16T11:51:24;2.57;;;0.80;;
10872;SDS011;34586;53.616;10.032;2023-01-16T11:53:54;1.60;;;0.83;;
10872;SDS011;34586;53.616;10.032;2023-01-16T11:59:05;0.90;;;0.83;;
10872;SDS011;34586;53.616;10.032;2023-01-16T12:04:35;1.50;;;0.70;;
10872;SDS011;34586;53.616;10.032;2023-01-16T12:07:17;1.63;;;1.00;;
10872;SDS011;34586;53.616;10.032;2023-01-16T12:15:31;0.50;;;0.50;;
10872;SDS011;34586;53.616;10.032;2023-01-16T12:21:03;2.20;;;1.00;;
10872;SDS011;34586;53.616;10.032;2023-01-16T12:23:46;2.43;;;1.00;;
10872;SDS011;34586;53.616;10.032;2023-01-16T12:26:28;2.10;;;1.20;;
10872;SDS011;34586;53.616;10.032;2023-01-16T12:58:45;4.67;;;0.60;;
10872;SDS011;34586;53.616;10.032;2023-01-16T13:01:17;2.57;;;0.80;;
10872;SDS011;34586;53.616;10.032;2023-01-16T13:03:54;1.93;;;0.90;;
10872;SDS011;34586;53.616;10.032;2023-01-16T13:06:32;1.63;;;0.70;;
10872;SDS011;34586;53.616;10.032;2023-01-16T13:09:18;1.30;;;0.73;;
10872;SDS011;34586;53.616;10.032;2023-01-16T13:12:16;2.40;;;0.90;;
10872;SDS011;34586;53.616;10.032;2023-01-16T13:15:39;2.90;;;1.23;;
10872;SDS011;34586;53.616;10.032;2023-01-16T13:18:04;2.07;;;1.00;;
10872;SDS011;34586;53.616;10.032;2023-01-16T13:20:36;1.77;;;0.90;;
10872;SDS011;34586;53.616;10.032;2023-01-16T13:23:04;1.83;;;0.80;;
10872;SDS011;34586;53.616;10.032;2023-01-16T13:25:39;3.00;;;1.00;;
10872;SDS011;34586;53.616;10.032;2023-01-16T13:31:19;3.30;;;1.10;;
10872;SDS011;34586;53.616;10.032;2023-01-16T13:33:58;1.93;;;0.77;;
10872;SDS011;34586;53.616;10.032;2023-01-16T13:36:44;1.53;;;0.50;;
10872;SDS011;34586;53.616;10.032;2023-01-16T13:39:21;2.10;;;0.80;;
10872;SDS011;34586;53.616;10.032;2023-01-16T13:42:01;2.13;;;0.67;;
10872;SDS011;34586;53.616;10.032;2023-01-16T13:44:30;2.23;;;0.87;;
10872;SDS011;34586;53.616;10.032;2023-01-16T13:47:20;1.50;;;0.60;;
10872;SDS011;34586;53.616;10.032;2023-01-16T13:49:54;2.70;;;0.90;;
10872;SDS011;34586;53.616;10.032;2023-01-16T13:52:28;1.40;;;0.60;;
10872;SDS011;34586;53.616;10.032;2023-01-16T13:54:57;1.33;;;0.80;;
10872;SDS011;34586;53.616;10.032;2023-01-16T13:57:26;3.27;;;0.90;;
10872;SDS011;34586;53.616;10.032;2023-01-16T14:13:41;2.20;;;0.80;;
10872;SDS011;34586;53.616;10.032;2023-01-16T14:21:41;3.53;;;1.00;;
10872;SDS011;34586;53.616;10.032;2023-01-16T14:24:28;2.93;;;0.90;;
10872;SDS011;34586;53.616;10.032;2023-01-16T14:27:03;2.40;;;0.90;;
10872;SDS011;34586;53.616;10.032;2023-01-16T14:29:32;2.17;;;0.83;;
10872;SDS011;34586;53.616;10.032;2023-01-16T14:32:02;2.30;;;0.83;;
10872;SDS011;34586;53.616;10.032;2023-01-16T14:34:50;1.83;;;0.97;;
10872;SDS011;34586;53.616;10.032;2023-01-16T14:37:36;2.13;;;1.00;;
10872;SDS011;34586;53.616;10.032;2023-01-16T14:53:59;3.27;;;0.87;;
10872;SDS011;34586;53.616;10.032;2023-01-16T14:57:00;2.50;;;0.80;;
10872;SDS011;34586;53.616;10.032;2023-01-16T14:59:47;2.93;;;0.90;;
10872;SDS011;34586;53.616;10.032;2023-01-16T15:02:17;3.17;;;1.30;;
10872;SDS011;34586;53.616;10.032;2023-01-16T15:05:05;1.67;;;1.03;;
10872;SDS011;34586;53.616;10.032;2023-01-16T15:10:19;2.73;;;0.83;;
10872;SDS011;34586;53.616;10.032;2023-01-16T15:12:48;3.20;;;0.80;;
10872;SDS011;34586;53.616;10.032;2023-01-16T15:17:51;1.57;;;1.00;;
10872;SDS011;34586;53.616;10.032;2023-01-16T15:20:38;1.00;;;0.60;;
10872;SDS011;34586;53.616;10.032;2023-01-16T15:25:57;4.50;;;1.10;;
10872;SDS011;34586;53.616;10.032;2023-01-16T15:31:23;1.93;;;1.00;;
10872;SDS011;34586;53.616;10.032;2023-01-16T15:34:16;3.33;;;1.20;;
10872;SDS011;34586;53.616;10.032;2023-01-16T15:36:49;3.50;;;1.70;;
10872;SDS011;34586;53.616;10.032;2023-01-16T15:39:18;4.27;;;1.00;;
10872;SDS011;34586;53.616;10.032;2023-01-16T15:41:50;1.73;;;0.90;;
10872;SDS011;34586;53.616;10.032;2023-01-16T15:44:38;5.33;;;1.30;;
10872;SDS011;34586;53.616;10.032;2023-01-16T15:50:02;2.23;;;1.20;;
10872;SDS011;34586;53.616;10.032;2023-01-16T15:52:45;3.50;;;1.43;;
10872;SDS011;34586;53.616;10.032;2023-01-16T15:55:21;3.53;;;1.43;;
10872;SDS011;34586;53.616;10.032;2023-01-16T15:57:51;3.83;;;1.13;;
10872;SDS011;34586;53.616;10.032;2023-01-16T16:00:23;2.00;;;1.03;;
10872;SDS011;34586;53.616;10.032;2023-01-16T16:03:12;1.70;;;0.83;;
10872;SDS011;34586;53.616;10.032;2023-01-16T16:05:43;1.83;;;1.00;;
10872;SDS011;34586;53.616;10.032;2023-01-16T16:08:13;2.10;;;0.90;;
10872;SDS011;34586;53.616;10.032;2023-01-16T16:10:40;6.20;;;1.73;;
10872;SDS011;34586;53.616;10.032;2023-01-16T16:13:26;4.17;;;1.27;;
10872;SDS011;34586;53.616;10.032;2023-01-16T16:15:55;2.40;;;1.10;;
10872;SDS011;34586;53.616;10.032;2023-01-16T16:18:53;2.43;;;2.00;;
10872;SDS011;34586;53.616;10.032;2023-01-16T16:21:22;2.80;;;1.37;;
10872;SDS011;34586;53.616;10.032;2023-01-16T16:23:57;3.83;;;1.20;;
10872;SDS011;34586;53.616;10.032;2023-01-16T16:26:26;1.97;;;1.10;;
10872;SDS011;34586;53.616;10.032;2023-01-16T16:28:52;2.70;;;1.20;;
10872;SDS011;34586;53.616;10.032;2023-01-16T16:33:59;2.53;;;1.10;;
10872;SDS011;34586;53.616;10.032;2023-01-16T16:36:35;2.50;;;1.10;;
10872;SDS011;34586;53.616;10.032;2023-01-16T16:39:03;2.07;;;1.20;;
10872;SDS011;34586;53.616;10.032;2023-01-16T16:41:42;2.00;;;1.03;;
10872;SDS011;34586;53.616;10.032;2023-01-16T16:44:34;2.70;;;1.20;;
10872;SDS011;34586;53.616;10.032;2023-01-16T16:47:14;1.57;;;0.73;;
10872;SDS011;34586;53.616;10.032;2023-01-16T16:49:47;3.93;;;1.00;;
10872;SDS011;34586;53.616;10.032;2023-01-16T16:54:52;3.47;;;1.00;;
10872;SDS011;34586;53.616;10.032;2023-01-16T16:57:19;1.90;;;0.73;;
10872;SDS011;34586;53.616;10.032;2023-01-16T16:59:45;1.17;;;0.87;;
10872;SDS011;34586;53.616;10.032;2023-01-16T17:02:12;2.03;;;1.27;;
10872;SDS011;34586;53.616;10.032;2023-01-16T17:04:38;3.37;;;1.10;;
10872;SDS011;34586;53.616;10.032;2023-01-16T17:07:03;3.07;;;1.10;;
10872;SDS011;34586;53.616;10.032;2023-01-16T17:09:30;2.63;;;1.20;;
10872;SDS011;34586;53.616;10.032;2023-01-16T17:12:17;2.37;;;1.23;;
10872;SDS011;34586;53.616;10.032;2023-01-16T17:14:47;1.83;;;1.30;;
10872;SDS011;34586;53.616;10.032;2023-01-16T17:17:14;2.47;;;1.00;;
10872;SDS011;34586;53.616;10.032;2023-01-16T17:19:42;2.03;;;1.13;;
10872;SDS011;34586;53.616;10.032;2023-01-16T17:22:09;1.63;;;1.10;;
10872;SDS011;34586;53.616;10.032;2023-01-16T17:24:36;3.57;;;1.40;;
10872;SDS011;34586;53.616;10.032;2023-01-16T17:27:02;3.43;;;1.30;;
10872;SDS011;34586;53.616;10.032;2023-01-16T17:29:32;3.83;;;1.47;;
10872;SDS011;34586;53.616;10.032;2023-01-16T17:31:58;4.23;;;0.90;;
10872;SDS011;34586;53.616;10.032;2023-01-16T17:34:29;3.43;;;1.10;;
10872;SDS011;34586;53.616;10.032;2023-01-16T17:36:57;3.57;;;1.20;;
10872;SDS011;34586;53.616;10.032;2023-01-16T17:39:23;3.00;;;1.00;;
10872;SDS011;34586;53.616;10.032;2023-01-16T17:41:50;2.70;;;1.17;;
10872;SDS011;34586;53.616;10.032;2023-01-16T17:44:21;1.53;;;1.00;;
10872;SDS011;34586;53.616;10.032;2023-01-16T17:47:07;4.83;;;1.00;;
10872;SDS011;34586;53.616;10.032;2023-01-16T17:49:33;1.20;;;1.10;;